sensor_id;sensor_type;location;lat;lon;timestamp;temperature;humidity
54946;DHT22;40846;44.788;20.486;2024-01-07T00:01:38;256.80;2252.80
54946;DHT22;40846;44.788;20.486;2024-01-07T00:04:04;256.70;2252.80
54946;DHT22;40846;44.788;20.486;2024-01-07T00:06:30;256.60;2252.80
54946;DHT22;40846;44.788;20.486;2024-01-07T00:08:55;256.60;2252.80
54946;DHT22;40846;44.788;20.486;2024-01-07T00:11:21;256.60;2252.80
54946;DHT22;40846;44.788;20.486;2024-01-07T00:13:47;256.70;2252.80
54946;DHT22;40846;44.788;20.486;2024-01-07T00:16:12;256.60;2252.80
54946;DHT22;40846;44.788;20.486;2024-01-07T00:18:38;256.60;2252.80
54946;DHT22;40846;44.788;20.486;2024-01-07T00:21:04;256.60;2252.80
54946;DHT22;40846;44.788;20.486;2024-01-07T00:23:30;256.60;2252.80
54946;DHT22;40846;44.788;20.486;2024-01-07T00:25:56;256.70;2252.80
54946;DHT22;40846;44.788;20.486;2024-01-07T00:28:22;256.70;2252.80
54946;DHT22;40846;44.788;20.486;2024-01-07T00:30:47;256.80;2252.80
54946;DHT22;40846;44.788;20.486;2024-01-07T00:33:13;256.80;2252.80
54946;DHT22;40846;44.788;20.486;2024-01-07T00:35:39;256.80;2252.80
54946;DHT22;40846;44.788;20.486;2024-01-07T00:38:05;256.80;2252.80
54946;DHT22;40846;44.788;20.486;2024-01-07T00:40:30;256.80;2252.80
54946;DHT22;40846;44.788;20.486;2024-01-07T00:42:56;256.80;2252.80
54946;DHT22;40846;44.788;20.486;2024-01-07T00:45:25;256.80;2252.80
54946;DHT22;40846;44.788;20.486;2024-01-07T00:47:50;256.80;2252.80
54946;DHT22;40846;44.788;20.486;2024-01-07T00:50:17;256.80;2252.80
54946;DHT22;40846;44.788;20.486;2024-01-07T00:52:43;256.80;2252.80
54946;DHT22;40846;44.788;20.486;2024-01-07T00:55:11;256.80;2252.80
54946;DHT22;40846;44.788;20.486;2024-01-07T00:57:36;256.80;2252.80
54946;DHT22;40846;44.788;20.486;2024-01-07T01:00:06;256.90;2252.80
54946;DHT22;40846;44.788;20.486;2024-01-07T01:02:34;256.90;2252.80
54946;DHT22;40846;44.788;20.486;2024-01-07T01:05:01;256.90;2252.80
54946;DHT22;40846;44.788;20.486;2024-01-07T01:07:27;256.90;2252.80
54946;DHT22;40846;44.788;20.486;2024-01-07T01:09:53;256.90;2252.80
54946;DHT22;40846;44.788;20.486;2024-01-07T01:12:19;256.90;2252.80
54946;DHT22;40846;44.788;20.486;2024-01-07T01:14:45;256.90;2252.80
54946;DHT22;40846;44.788;20.486;2024-01-07T01:17:11;256.80;2252.80
54946;DHT22;40846;44.788;20.486;2024-01-07T01:19:37;256.70;2252.80
54946;DHT22;40846;44.788;20.486;2024-01-07T01:22:03;256.70;2252.80
54946;DHT22;40846;44.788;20.486;2024-01-07T01:24:28;256.60;2252.80
54946;DHT22;40846;44.788;20.486;2024-01-07T01:26:54;256.60;2252.80
54946;DHT22;40846;44.788;20.486;2024-01-07T01:29:20;256.60;2252.80
54946;DHT22;40846;44.788;20.486;2024-01-07T01:31:46;256.60;2252.80
54946;DHT22;40846;44.788;20.486;2024-01-07T01:34:11;256.60;2252.80
54946;DHT22;40846;44.788;20.486;2024-01-07T01:36:37;256.50;2252.80
54946;DHT22;40846;44.788;20.486;2024-01-07T01:39:03;256.50;2252.80
54946;DHT22;40846;44.788;20.486;2024-01-07T01:41:29;256.50;2252.80
54946;DHT22;40846;44.788;20.486;2024-01-07T01:44:01;256.50;2252.80
54946;DHT22;40846;44.788;20.486;2024-01-07T01:46:28;256.50;2252.80
54946;DHT22;40846;44.788;20.486;2024-01-07T01:48:54;256.50;2252.80
54946;DHT22;40846;44.788;20.486;2024-01-07T01:51:21;256.40;2252.80
54946;DHT22;40846;44.788;20.486;2024-01-07T01:53:48;256.40;2252.80
54946;DHT22;40846;44.788;20.486;2024-01-07T01:58:43;256.50;2252.80
54946;DHT22;40846;44.788;20.486;2024-01-07T02:01:09;256.30;2252.80
54946;DHT22;40846;44.788;20.486;2024-01-07T16:07:26;256.00;2252.80
54946;DHT22;40846;44.788;20.486;2024-01-07T16:09:51;231.30;2252.80
54946;DHT22;40846;44.788;20.486;2024-01-07T17:10:54;230.40;2252.80
54946;DHT22;40846;44.788;20.486;2024-01-07T17:20:38;205.20;2252.80
54946;DHT22;40846;44.788;20.486;2024-01-07T17:23:05;205.10;2252.80
54946;DHT22;40846;44.788;20.486;2024-01-07T17:25:31;205.10;2252.80
54946;DHT22;40846;44.788;20.486;2024-01-07T17:27:57;205.10;2252.80
54946;DHT22;40846;44.788;20.486;2024-01-07T18:31:51;179.80;2252.80
54946;DHT22;40846;44.788;20.486;2024-01-07T18:34:23;179.60;2252.80
54946;DHT22;40846;44.788;20.486;2024-01-07T18:36:59;179.80;2252.80
54946;DHT22;40846;44.788;20.486;2024-01-07T18:39:48;179.90;2252.80
54946;DHT22;40846;44.788;20.486;2024-01-07T18:42:14;179.90;2252.80
54946;DHT22;40846;44.788;20.486;2024-01-07T18:44:40;179.90;2252.80
54946;DHT22;40846;44.788;20.486;2024-01-07T18:49:37;205.00;2252.80
54946;DHT22;40846;44.788;20.486;2024-01-07T18:52:04;204.90;2252.80
54946;DHT22;40846;44.788;20.486;2024-01-07T18:54:29;204.80;2252.80
54946;DHT22;40846;44.788;20.486;2024-01-07T18:56:55;180.10;2252.80
54946;DHT22;40846;44.788;20.486;2024-01-07T18:59:21;179.90;2252.80
54946;DHT22;40846;44.788;20.486;2024-01-07T19:01:47;179.80;2252.80
54946;DHT22;40846;44.788;20.486;2024-01-07T19:04:13;179.60;2252.80
54946;DHT22;40846;44.788;20.486;2024-01-07T19:06:39;179.80;2252.80
54946;DHT22;40846;44.788;20.486;2024-01-07T19:09:05;179.70;2252.80
54946;DHT22;40846;44.788;20.486;2024-01-07T19:11:31;179.50;2252.80
54946;DHT22;40846;44.788;20.486;2024-01-07T19:13:57;179.60;2252.80
54946;DHT22;40846;44.788;20.486;2024-01-07T19:16:23;179.50;2176.00
54946;DHT22;40846;44.788;20.486;2024-01-07T19:23:42;179.70;2252.80
54946;DHT22;40846;44.788;20.486;2024-01-07T20:54:09;128.90;2252.80
54946;DHT22;40846;44.788;20.486;2024-01-07T20:56:42;128.80;2252.80
54946;DHT22;40846;44.788;20.486;2024-01-07T20:59:14;128.80;2252.80
54946;DHT22;40846;44.788;20.486;2024-01-07T21:01:40;128.70;2252.80
54946;DHT22;40846;44.788;20.486;2024-01-07T21:04:05;128.70;2252.80
54946;DHT22;40846;44.788;20.486;2024-01-07T21:06:32;128.60;2252.80
54946;DHT22;40846;44.788;20.486;2024-01-07T21:08:58;128.60;2252.80
54946;DHT22;40846;44.788;20.486;2024-01-07T21:11:24;128.70;2252.80
54946;DHT22;40846;44.788;20.486;2024-01-07T21:13:50;128.70;2252.80
54946;DHT22;40846;44.788;20.486;2024-01-07T21:16:16;128.70;2252.80
54946;DHT22;40846;44.788;20.486;2024-01-07T21:18:42;128.80;2252.80
54946;DHT22;40846;44.788;20.486;2024-01-07T21:21:07;128.70;2252.80
54946;DHT22;40846;44.788;20.486;2024-01-07T21:23:33;128.80;2252.80
54946;DHT22;40846;44.788;20.486;2024-01-07T21:25:59;128.90;2252.80
54946;DHT22;40846;44.788;20.486;2024-01-07T21:28:25;128.90;2252.80
54946;DHT22;40846;44.788;20.486;2024-01-07T21:30:54;128.90;2252.80
54946;DHT22;40846;44.788;20.486;2024-01-07T21:33:32;153.60;2252.80
54946;DHT22;40846;44.788;20.486;2024-01-07T21:36:03;128.70;2252.80
54946;DHT22;40846;44.788;20.486;2024-01-07T21:38:29;128.60;2252.80
54946;DHT22;40846;44.788;20.486;2024-01-07T21:43:22;128.40;2252.80
54946;DHT22;40846;44.788;20.486;2024-01-07T21:45:50;128.10;2252.80
54946;DHT22;40846;44.788;20.486;2024-01-07T21:48:16;128.10;2252.80
54946;DHT22;40846;44.788;20.486;2024-01-07T21:50:44;128.10;2252.80
54946;DHT22;40846;44.788;20.486;2024-01-07T22:42:02;103.00;2227.20
54946;DHT22;40846;44.788;20.486;2024-01-07T22:44:28;102.80;2227.20
54946;DHT22;40846;44.788;20.486;2024-01-07T22:46:54;102.70;2227.20
54946;DHT22;40846;44.788;20.486;2024-01-07T22:49:19;102.60;2227.20
